Belle Isle — FOXN — position and weather

sailwx.info

Track history (hours):
 
Tides and Currents Weather Stations Pressure Air Temp Water Temp Dewpoint Dewpoint Depression Visibility Wind Speed Wind Dir Waves Ship Positions

Belle Isle

Last reported at 2017-Aug-15 15:20 UTC. Time now 2017-Aug-18 01:06 UTC.
Position N 47°21' W 003°09'.

Length 16 m.

Type: SAR. MMSI: 227021500.

Date/timePositionNaut miles runAvg speedWind from/ knotsBaromVisibWave heightAir tempDewpointWater temp
2017-Aug-15 15:20N 47°21' W 003°09'1 1.7
2017-Aug-15 15:00N 47°21' W 003°08'1 0.1
2017-Aug-15 10:12N 47°21' W 003°09'0 2.4
2017-Aug-15 10:00N 47°21' W 003°08'0 0.9
2017-Aug-15 09:30N 47°21' W 003°09'  
2017-Aug-11 14:37N 47°21' W 003°09'0 2.8
2017-Aug-11 14:30N 47°21' W 003°09'0 0.3
2017-Aug-11 13:31N 47°21' W 003°09'0 0.0
2017-Aug-10 15:09N 47°21' W 003°09'0 0.0
2017-Aug-10 15:00N 47°21' W 003°09'3 5.4
2017-Aug-10 14:30N 47°20' W 003°06'3 0.2
2017-Aug-09 21:54N 47°21' W 003°09'512.9
2017-Aug-09 21:30N 47°26' W 003°08'2 4.6
2017-Aug-09 21:00N 47°28' W 003°07'815.1
2017-Aug-09 20:30N 47°24' W 002°57'714.6
2017-Aug-09 20:00N 47°21' W 003°08'  
2017-Aug-06 19:46N 47°21' W 003°09'414.3
2017-Aug-06 19:30N 47°25' W 003°08'4 4.4
2017-Aug-06 18:35N 47°29' W 003°07'0 0.0
2017-Aug-06 18:24N 47°29' W 003°07'614.1
2017-Aug-06 18:00N 47°23' W 003°08'2 4.5
2017-Aug-06 17:30N 47°21' W 003°09'0 0.0
2017-Aug-06 13:49N 47°21' W 003°09'3 9.9
2017-Aug-06 13:30N 47°22' W 003°13'0 0.0
2017-Aug-06 10:30N 47°22' W 003°13'0 0.5
2017-Aug-06 10:01N 47°23' W 003°13'0 0.5
2017-Aug-06 09:31N 47°22' W 003°13'3 6.2
2017-Aug-06 09:01N 47°21' W 003°09'0 0.0
2017-Aug-06 00:30N 47°21' W 003°09'  
Track history (hours):
 
Tides and Currents Weather Stations Pressure Air Temp Water Temp Dewpoint Dewpoint Depression Visibility Wind Speed Wind Dir Waves Ship Positions

Belle Isle

Last reported at 2017-Aug-15 15:20 UTC. Time now 2017-Aug-18 01:06 UTC.
Position N 47°21' W 003°09'.

Length 16 m.

Type: SAR. MMSI: 227021500.

Date/timePositionNaut miles runAvg speedWind from/ knotsBaromVisibWave heightAir tempDewpointWater temp
2017-Aug-15 15:20N 47°21' W 003°09'1 1.7
2017-Aug-15 15:00N 47°21' W 003°08'1 0.1
2017-Aug-15 10:12N 47°21' W 003°09'0 2.4
2017-Aug-15 10:00N 47°21' W 003°08'0 0.9
2017-Aug-15 09:30N 47°21' W 003°09'  
2017-Aug-11 14:37N 47°21' W 003°09'0 2.8
2017-Aug-11 14:30N 47°21' W 003°09'0 0.3
2017-Aug-11 13:31N 47°21' W 003°09'0 0.0
2017-Aug-10 15:09N 47°21' W 003°09'0 0.0
2017-Aug-10 15:00N 47°21' W 003°09'3 5.4
2017-Aug-10 14:30N 47°20' W 003°06'3 0.2
2017-Aug-09 21:54N 47°21' W 003°09'512.9
2017-Aug-09 21:30N 47°26' W 003°08'2 4.6
2017-Aug-09 21:00N 47°28' W 003°07'815.1
2017-Aug-09 20:30N 47°24' W 002°57'714.6
2017-Aug-09 20:00N 47°21' W 003°08'  
2017-Aug-06 19:46N 47°21' W 003°09'414.3
2017-Aug-06 19:30N 47°25' W 003°08'4 4.4
2017-Aug-06 18:35N 47°29' W 003°07'0 0.0
2017-Aug-06 18:24N 47°29' W 003°07'614.1
2017-Aug-06 18:00N 47°23' W 003°08'2 4.5
2017-Aug-06 17:30N 47°21' W 003°09'0 0.0
2017-Aug-06 13:49N 47°21' W 003°09'3 9.9
2017-Aug-06 13:30N 47°22' W 003°13'0 0.0
2017-Aug-06 10:30N 47°22' W 003°13'0 0.5
2017-Aug-06 10:01N 47°23' W 003°13'0 0.5
2017-Aug-06 09:31N 47°22' W 003°13'3 6.2
2017-Aug-06 09:01N 47°21' W 003°09'0 0.0
2017-Aug-06 00:30N 47°21' W 003°09'  

Dump ship's entire track history